Time;durP1;ratioP1;P1;durP2;ratioP2;P2;SDS_P1;SDS_P2;PMS_P1;PMS_P2;Temp;Humidity;BMP_temperature;BMP_pressure;BME280_temperature;BME280_humidity;BME280_pressure;Samples;Min_cycle;Max_cycle;Signal;HPM_P1;HPM_P2
2023/06/06 00:01:13;;;;;;;8.80;7.00;;;15.50;91.20;;;;;;4970930;28;20031;-82
2023/06/06 00:03:38;;;;;;;8.90;6.43;;;15.50;91.20;;;;;;4971487;28;20047;-82
2023/06/06 00:06:04;;;;;;;8.15;7.18;;;15.50;91.20;;;;;;4955766;29;20038;-82
2023/06/06 00:08:33;;;;;;;9.48;7.00;;;15.50;91.20;;;;;;4955686;29;20031;-82
2023/06/06 00:10:59;;;;;;;10.65;7.05;;;15.30;91.30;;;;;;4980221;28;20483;-82
2023/06/06 00:13:27;;;;;;;9.32;7.75;;;15.30;91.40;;;;;;4976542;28;20042;-82
2023/06/06 00:15:57;;;;;;;8.32;6.40;;;15.20;91.40;;;;;;4975923;28;20037;-81
2023/06/06 00:18:26;;;;;;;10.05;6.60;;;15.20;91.40;;;;;;4975997;28;20472;-82
2023/06/06 00:20:53;;;;;;;7.28;6.00;;;15.20;91.50;;;;;;4988334;28;20034;-83
2023/06/06 00:23:20;;;;;;;8.45;7.30;;;15.20;91.50;;;;;;4980021;28;20066;-82
2023/06/06 00:25:46;;;;;;;11.88;7.50;;;15.20;91.50;;;;;;4980933;28;20033;-81
2023/06/06 00:28:13;;;;;;;11.65;6.97;;;15.10;91.50;;;;;;4980746;28;20030;-82
2023/06/06 00:30:38;;;;;;;8.32;6.55;;;15.00;91.70;;;;;;4976191;28;20026;-81
2023/06/06 00:33:04;;;;;;;9.52;6.68;;;15.00;91.80;;;;;;4978273;28;20383;-82
2023/06/06 00:35:30;;;;;;;10.48;6.82;;;14.90;91.80;;;;;;4978250;28;20035;-82
2023/06/06 00:37:55;;;;;;;7.43;6.53;;;14.90;91.80;;;;;;4959706;28;20035;-82
2023/06/06 00:40:21;;;;;;;8.82;6.63;;;14.90;91.80;;;;;;4941755;28;20031;-82
2023/06/06 00:42:48;;;;;;;8.20;6.43;;;14.90;91.80;;;;;;4973121;28;20023;-82
2023/06/06 00:45:14;;;;;;;8.73;6.82;;;14.90;91.80;;;;;;4974537;28;20035;-82
2023/06/06 00:47:44;;;;;;;10.32;6.50;;;14.80;91.80;;;;;;4973330;28;20382;-82
2023/06/06 00:50:13;;;;;;;9.10;6.57;;;14.70;92.20;;;;;;4973552;28;20502;-82
2023/06/06 00:52:46;;;;;;;8.95;6.90;;;14.70;92.00;;;;;;4941593;28;20030;-82
2023/06/06 00:55:17;;;;;;;9.48;7.00;;;14.70;91.90;;;;;;4974346;28;20152;-82
2023/06/06 00:57:44;;;;;;;7.80;6.07;;;14.70;92.00;;;;;;4972649;28;20027;-83
2023/06/06 01:00:15;;;;;;;8.43;6.32;;;14.70;92.00;;;;;;4974597;28;20038;-82
2023/06/06 01:02:43;;;;;;;7.90;6.80;;;14.70;92.00;;;;;;4978851;28;20030;-83
2023/06/06 01:05:10;;;;;;;11.07;7.38;;;14.60;92.00;;;;;;4960949;28;20479;-82
2023/06/06 01:07:36;;;;;;;10.20;6.82;;;14.60;92.10;;;;;;4961535;28;20050;-82
2023/06/06 01:10:09;;;;;;;9.93;6.80;;;14.50;92.20;;;;;;4978445;28;20039;-82
2023/06/06 01:12:43;;;;;;;9.45;6.78;;;14.40;92.20;;;;;;4996426;28;20026;-82
2023/06/06 01:15:35;;;;;;;8.48;6.80;;;14.50;92.20;;;;;;4996685;28;20027;-82
2023/06/06 01:18:01;;;;;;;8.02;6.40;;;14.40;92.30;;;;;;4980310;28;20137;-82
2023/06/06 01:20:28;;;;;;;8.00;6.43;;;14.40;92.20;;;;;;4997463;28;20026;-82
2023/06/06 01:22:54;;;;;;;9.15;6.55;;;14.40;92.20;;;;;;4998178;28;20022;-82
2023/06/06 01:25:23;;;;;;;8.40;6.00;;;14.40;92.20;;;;;;4980386;28;20030;-82
2023/06/06 01:27:53;;;;;;;8.77;6.53;;;14.40;92.20;;;;;;4997887;28;20022;-82
2023/06/06 01:30:22;;;;;;;7.65;6.78;;;14.40;92.20;;;;;;4996419;28;20470;-82
2023/06/06 01:33:08;;;;;;;9.20;6.25;;;14.40;92.30;;;;;;4980424;28;20045;-82
2023/06/06 01:35:44;;;;;;;8.48;6.55;;;14.30;92.30;;;;;;4996903;28;20049;-83
2023/06/06 01:38:19;;;;;;;8.55;6.32;;;14.30;92.30;;;;;;4979927;28;20097;-83
2023/06/06 01:40:47;;;;;;;10.38;6.82;;;14.30;92.30;;;;;;4980034;28;20097;-83
2023/06/06 01:43:16;;;;;;;8.40;6.63;;;14.20;92.40;;;;;;4996703;28;20041;-83
2023/06/06 01:45:43;;;;;;;8.30;6.30;;;14.20;92.50;;;;;;4979969;28;20037;-83
2023/06/06 01:48:09;;;;;;;8.38;6.60;;;14.20;92.60;;;;;;4980426;28;20037;-83
2023/06/06 01:50:36;;;;;;;10.23;6.55;;;14.10;92.60;;;;;;4998136;28;20022;-83
2023/06/06 01:53:02;;;;;;;9.38;5.80;;;14.10;92.60;;;;;;4981214;28;20031;-83
2023/06/06 01:55:27;;;;;;;7.95;6.22;;;14.10;92.60;;;;;;4981641;28;20076;-83
2023/06/06 01:57:53;;;;;;;10.00;7.00;;;14.10;92.60;;;;;;4999815;28;20030;-82
2023/06/06 02:00:21;;;;;;;8.75;6.32;;;14.10;92.60;;;;;;4988074;28;20045;-82
2023/06/06 02:02:47;;;;;;;7.80;6.53;;;14.00;92.70;;;;;;5016782;28;20021;-82
2023/06/06 02:05:15;;;;;;;8.65;5.90;;;14.00;92.70;;;;;;5017311;28;20058;-83
2023/06/06 02:07:43;;;;;;;8.65;6.18;;;14.00;92.70;;;;;;5001872;28;20014;-83
2023/06/06 02:10:12;;;;;;;9.55;6.90;;;14.10;92.70;;;;;;4990791;28;20046;-85
2023/06/06 02:12:49;;;;;;;12.63;7.32;;;14.00;92.80;;;;;;4978597;28;20030;-84
2023/06/06 02:15:15;;;;;;;11.35;6.70;;;14.00;92.80;;;;;;4978031;28;20031;-85
2023/06/06 02:17:44;;;;;;;9.02;6.93;;;13.90;92.90;;;;;;4979372;28;20113;-83
2023/06/06 02:20:11;;;;;;;9.80;6.80;;;13.90;93.00;;;;;;4978336;28;20408;-84
2023/06/06 02:22:38;;;;;;;8.73;6.57;;;13.90;93.00;;;;;;4977607;28;20034;-84
2023/06/06 02:25:04;;;;;;;8.52;6.22;;;13.80;93.00;;;;;;4996119;28;20035;-84
2023/06/06 02:27:33;;;;;;;9.68;6.78;;;13.90;93.10;;;;;;4978130;28;20030;-84
2023/06/06 02:29:58;;;;;;;8.50;6.45;;;13.80;93.10;;;;;;4978392;28;20018;-84
2023/06/06 02:32:24;;;;;;;8.57;6.88;;;13.80;93.10;;;;;;4978043;28;20030;-85
2023/06/06 02:34:55;;;;;;;11.32;7.20;;;13.80;93.10;;;;;;4978153;28;20049;-84
2023/06/06 02:37:23;;;;;;;10.93;7.10;;;13.70;93.30;;;;;;4978651;28;20368;-85
2023/06/06 02:39:49;;;;;;;8.68;7.25;;;13.70;93.30;;;;;;4994140;28;20026;-84
2023/06/06 02:42:15;;;;;;;9.00;6.72;;;13.60;93.50;;;;;;4978038;28;20046;-84
2023/06/06 02:44:40;;;;;;;10.10;7.07;;;13.50;93.50;;;;;;4978403;28;20034;-84
2023/06/06 02:47:06;;;;;;;12.13;7.35;;;13.50;93.70;;;;;;4977611;28;20049;-85
2023/06/06 02:49:34;;;;;;;9.55;6.95;;;13.50;93.70;;;;;;4978327;28;20030;-84
2023/06/06 02:52:02;;;;;;;10.30;7.03;;;13.50;93.70;;;;;;4977815;28;20023;-84
2023/06/06 02:54:28;;;;;;;8.88;6.88;;;13.50;93.70;;;;;;4977383;28;20100;-84
2023/06/06 02:56:54;;;;;;;8.68;6.32;;;13.50;93.70;;;;;;4977517;28;20513;-84
2023/06/06 02:59:22;;;;;;;9.60;7.03;;;13.60;93.70;;;;;;4978101;28;20470;-84
2023/06/06 03:01:48;;;;;;;9.48;6.40;;;13.60;93.70;;;;;;4994996;28;20489;-84
2023/06/06 03:04:17;;;;;;;12.20;7.25;;;13.60;93.60;;;;;;4993517;28;20478;-85
2023/06/06 03:06:43;;;;;;;10.45;7.40;;;13.60;93.60;;;;;;4978043;28;20394;-83
2023/06/06 03:09:09;;;;;;;10.13;7.65;;;13.60;93.60;;;;;;4977973;28;20026;-83
2023/06/06 03:11:38;;;;;;;9.07;7.03;;;13.60;93.70;;;;;;4973883;28;20046;-84
2023/06/06 03:14:04;;;;;;;9.35;6.88;;;13.60;93.70;;;;;;4974337;28;20483;-84
2023/06/06 03:16:30;;;;;;;10.48;7.03;;;13.50;93.70;;;;;;4974621;28;20046;-84
2023/06/06 03:18:56;;;;;;;7.90;7.00;;;13.50;93.70;;;;;;4974825;28;20022;-85
2023/06/06 03:21:25;;;;;;;9.02;7.25;;;13.50;93.80;;;;;;4974615;28;20031;-83
2023/06/06 03:23:51;;;;;;;9.43;7.57;;;13.50;93.80;;;;;;4975371;28;20062;-83
2023/06/06 03:26:19;;;;;;;11.10;8.23;;;13.50;93.90;;;;;;4958480;28;20029;-84
2023/06/06 03:28:46;;;;;;;11.73;8.60;;;13.40;94.00;;;;;;4975054;28;20030;-83
2023/06/06 03:31:15;;;;;;;9.50;8.32;;;13.40;94.10;;;;;;4976069;28;20031;-84
2023/06/06 03:33:40;;;;;;;10.20;8.50;;;13.30;94.20;;;;;;4976783;28;20030;-84
2023/06/06 03:36:14;;;;;;;10.90;7.90;;;13.20;94.30;;;;;;4978467;28;20037;-84
2023/06/06 03:38:40;;;;;;;11.60;7.47;;;13.30;94.40;;;;;;5003417;28;20050;-84
2023/06/06 03:41:06;;;;;;;10.73;8.13;;;13.30;94.40;;;;;;4995812;28;20083;-83
2023/06/06 03:43:32;;;;;;;12.93;7.82;;;13.30;94.40;;;;;;4996993;28;20039;-83
2023/06/06 03:46:00;;;;;;;13.40;8.20;;;13.20;94.50;;;;;;4995384;28;20026;-84
2023/06/06 03:48:26;;;;;;;9.77;7.65;;;13.20;94.60;;;;;;4996059;28;20110;-83
2023/06/06 03:50:54;;;;;;;12.77;7.95;;;13.10;94.70;;;;;;4978201;28;20069;-83
2023/06/06 03:53:20;;;;;;;11.27;7.53;;;13.10;94.70;;;;;;4975030;28;20023;-84
2023/06/06 03:55:49;;;;;;;9.93;7.53;;;13.10;94.90;;;;;;4958332;28;20030;-84
2023/06/06 03:58:15;;;;;;;8.70;6.95;;;13.10;94.90;;;;;;4975075;28;20110;-84
2023/06/06 04:00:49;;;;;;;10.18;7.30;;;13.10;94.80;;;;;;4974014;28;20132;-83
2023/06/06 04:03:15;;;;;;;10.68;7.07;;;13.20;94.80;;;;;;4973477;28;20102;-84
2023/06/06 04:05:44;;;;;;;10.07;7.45;;;13.20;94.80;;;;;;4957605;28;20117;-84
2023/06/06 04:08:10;;;;;;;8.15;6.50;;;13.20;94.80;;;;;;4958227;28;20023;-84
2023/06/06 04:10:36;;;;;;;9.18;6.90;;;13.20;94.70;;;;;;4989048;28;20069;-84
2023/06/06 04:13:02;;;;;;;8.57;6.38;;;13.30;94.70;;;;;;4973566;28;20038;-84
2023/06/06 04:15:28;;;;;;;13.00;7.95;;;13.40;94.70;;;;;;4941298;28;20442;-83
2023/06/06 04:17:54;;;;;;;8.95;7.00;;;13.40;94.70;;;;;;4955476;28;20035;-84
2023/06/06 04:20:20;;;;;;;12.60;7.78;;;13.30;94.70;;;;;;4956975;28;20487;-83
2023/06/06 04:22:45;;;;;;;10.48;7.32;;;13.30;94.70;;;;;;4974549;28;20022;-84
2023/06/06 04:25:16;;;;;;;8.52;6.95;;;13.30;94.80;;;;;;4972858;28;20034;-84
2023/06/06 04:27:44;;;;;;;;;;;13.30;94.80;;;;;;4958234;28;20027;-84
2023/06/06 04:30:12;;;;;;;9.57;7.18;;;13.40;94.80;;;;;;4974601;28;19909;-85
2023/06/06 04:32:39;;;;;;;9.48;6.63;;;13.30;94.80;;;;;;4973163;28;20547;-85
2023/06/06 04:35:06;;;;;;;9.00;6.70;;;13.30;94.90;;;;;;4941275;28;20045;-84
2023/06/06 04:37:33;;;;;;;9.40;6.65;;;13.30;95.00;;;;;;4944783;28;20023;-85
2023/06/06 04:40:00;;;;;;;10.07;7.13;;;13.30;95.10;;;;;;4977741;28;20056;-84
2023/06/06 04:42:32;;;;;;;9.82;6.60;;;13.30;95.10;;;;;;4960723;28;20041;-85
2023/06/06 04:45:02;;;;;;;9.85;6.80;;;13.40;95.10;;;;;;4961664;28;20487;-85
2023/06/06 04:47:28;;;;;;;9.95;7.05;;;13.40;94.90;;;;;;4978254;28;20114;-83
2023/06/06 04:49:54;;;;;;;9.90;6.68;;;13.50;94.90;;;;;;4961435;28;20098;-85
2023/06/06 04:52:20;;;;;;;8.80;6.85;;;13.50;94.90;;;;;;4977266;28;20356;-85
2023/06/06 04:54:48;;;;;;;9.52;6.65;;;13.50;94.80;;;;;;4977190;28;20044;-85
2023/06/06 04:57:17;;;;;;;9.13;7.05;;;13.60;94.80;;;;;;4994316;28;20367;-84
2023/06/06 04:59:53;;;;;;;7.95;6.97;;;13.60;94.80;;;;;;4977386;28;20026;-84
2023/06/06 05:02:23;;;;;;;10.32;7.00;;;13.60;94.80;;;;;;4976856;28;20118;-83
2023/06/06 05:04:53;;;;;;;10.65;7.47;;;13.60;94.90;;;;;;4977000;28;20174;-85
2023/06/06 05:07:27;;;;;;;10.43;6.40;;;13.60;94.90;;;;;;4977413;28;20030;-85
2023/06/06 05:09:54;;;;;;;10.57;6.15;;;13.60;94.90;;;;;;4994506;28;20054;-85
2023/06/06 05:12:24;;;;;;;9.77;6.35;;;13.70;94.90;;;;;;4981332;28;20068;-86
2023/06/06 05:14:50;;;;;;;8.95;6.18;;;13.70;94.80;;;;;;4990943;28;20023;-85
2023/06/06 05:17:26;;;;;;;8.63;5.97;;;13.80;94.80;;;;;;5017059;28;20018;-87
2023/06/06 05:19:54;;;;;;;11.05;6.40;;;13.80;94.70;;;;;;5000857;28;20160;-86
2023/06/06 05:22:23;;;;;;;10.50;7.03;;;13.90;94.60;;;;;;4969085;28;20119;-83
2023/06/06 05:24:49;;;;;;;10.27;6.30;;;13.90;94.60;;;;;;5000288;28;20023;-86
2023/06/06 05:27:15;;;;;;;7.60;6.35;;;14.00;94.50;;;;;;4995501;28;20051;-85
2023/06/06 05:29:47;;;;;;;9.50;6.53;;;14.00;94.40;;;;;;4980668;28;20035;-85
2023/06/06 05:32:25;;;;;;;;;;;;;;;;;;;;;
2023/06/06 05:34:51;;;;;;;8.85;6.70;;;14.10;94.30;;;;;;4979409;28;20027;-85
2023/06/06 05:37:20;;;;;;;10.90;6.63;;;14.10;94.30;;;;;;4976113;28;20110;-86
2023/06/06 05:39:45;;;;;;;7.82;6.47;;;14.10;94.30;;;;;;4962314;28;20037;-85
2023/06/06 05:42:19;;;;;;;9.90;6.80;;;14.10;94.30;;;;;;4978330;28;20269;-85
2023/06/06 05:44:44;;;;;;;12.68;7.97;;;14.00;94.30;;;;;;4978699;28;20030;-85
2023/06/06 05:47:15;;;;;;;11.63;7.68;;;14.10;94.30;;;;;;4976812;28;20383;-85
2023/06/06 05:49:40;;;;;;;8.70;6.60;;;14.00;94.30;;;;;;4945051;28;20094;-85
2023/06/06 05:52:06;;;;;;;11.07;7.20;;;14.00;94.30;;;;;;4975901;28;20035;-86
2023/06/06 05:54:32;;;;;;;10.95;6.50;;;14.10;94.30;;;;;;4976202;28;20069;-85
2023/06/06 05:56:57;;;;;;;15.00;7.07;;;14.10;94.30;;;;;;4960208;28;20027;-87
2023/06/06 05:59:23;;;;;;;8.60;7.00;;;14.10;94.40;;;;;;4960041;28;20418;-87
2023/06/06 06:01:49;;;;;;;11.38;7.38;;;14.10;94.30;;;;;;4976120;28;20023;-85
2023/06/06 06:04:19;;;;;;;8.20;6.90;;;14.20;94.30;;;;;;4976956;28;20471;-86
2023/06/06 06:06:49;;;;;;;12.90;7.13;;;14.20;94.20;;;;;;4976845;28;20034;-86
2023/06/06 06:09:16;;;;;;;8.77;6.55;;;14.30;94.30;;;;;;4976068;28;20058;-87
2023/06/06 06:11:42;;;;;;;10.43;7.22;;;14.30;94.20;;;;;;4975427;28;20510;-83
2023/06/06 06:14:14;;;;;;;9.95;6.35;;;14.40;94.20;;;;;;4992223;28;20130;-85
2023/06/06 06:16:42;;;;;;;10.93;7.72;;;14.40;94.10;;;;;;4977057;28;20034;-84
2023/06/06 06:19:14;;;;;;;8.05;5.88;;;14.50;94.10;;;;;;4976148;28;20526;-84
2023/06/06 06:21:40;;;;;;;7.88;5.88;;;14.50;94.00;;;;;;4975733;28;20023;-84
2023/06/06 06:24:06;;;;;;;7.03;5.80;;;14.60;93.90;;;;;;4975581;28;20483;-86
2023/06/06 06:26:35;;;;;;;7.75;5.55;;;14.70;93.90;;;;;;4992415;28;20031;-85
2023/06/06 06:29:00;;;;;;;9.15;6.18;;;14.80;93.80;;;;;;4976501;28;20023;-85
2023/06/06 06:31:27;;;;;;;8.90;6.00;;;14.80;93.70;;;;;;4960448;28;20137;-86
2023/06/06 06:33:53;;;;;;;11.15;6.40;;;14.90;93.60;;;;;;4975682;28;20133;-85
2023/06/06 06:36:20;;;;;;;11.70;6.18;;;15.00;93.50;;;;;;4960562;28;20447;-85
2023/06/06 06:38:46;;;;;;;6.97;5.32;;;15.10;93.40;;;;;;4975715;28;20018;-84
2023/06/06 06:41:12;;;;;;;11.18;6.32;;;15.20;93.40;;;;;;4991730;28;20533;-85
2023/06/06 06:43:40;;;;;;;11.35;6.28;;;15.20;93.20;;;;;;4975300;28;20038;-85
2023/06/06 06:46:06;;;;;;;8.77;6.40;;;15.30;93.20;;;;;;4959529;28;20029;-85
2023/06/06 06:48:31;;;;;;;8.27;5.70;;;15.30;93.10;;;;;;4959321;28;20031;-85
2023/06/06 06:50:57;;;;;;;8.80;6.57;;;15.40;93.10;;;;;;4992555;28;20134;-85
2023/06/06 06:53:26;;;;;;;8.98;6.68;;;15.50;92.90;;;;;;4976317;28;20376;-86
2023/06/06 06:55:55;;;;;;;8.35;5.53;;;15.50;92.80;;;;;;4978776;28;20022;-85
2023/06/06 06:58:33;;;;;;;9.20;5.70;;;15.50;92.80;;;;;;4982588;28;20023;-86
2023/06/06 07:01:01;;;;;;;10.43;6.75;;;15.60;92.70;;;;;;5000054;28;20018;-86
2023/06/06 07:03:27;;;;;;;10.10;6.15;;;15.70;92.60;;;;;;4967701;28;20034;-84
2023/06/06 07:05:53;;;;;;;8.20;5.93;;;15.70;92.60;;;;;;4982404;28;20027;-85
2023/06/06 07:08:19;;;;;;;8.82;6.25;;;15.80;92.60;;;;;;4981404;28;20037;-85
2023/06/06 07:10:50;;;;;;;10.88;6.93;;;15.80;92.40;;;;;;4960178;28;20046;-86
2023/06/06 07:13:18;;;;;;;10.15;5.90;;;15.90;92.40;;;;;;4960753;28;20027;-85
2023/06/06 07:15:44;;;;;;;7.57;5.63;;;15.90;92.40;;;;;;4975156;28;20030;-85
2023/06/06 07:18:13;;;;;;;8.40;6.18;;;16.00;92.40;;;;;;4974838;28;20431;-86
2023/06/06 07:20:39;;;;;;;8.60;6.00;;;16.10;92.20;;;;;;4974625;28;20025;-86
2023/06/06 07:23:05;;;;;;;9.93;6.70;;;16.10;92.30;;;;;;4974976;28;20035;-85
2023/06/06 07:25:33;;;;;;;10.35;6.10;;;16.20;92.20;;;;;;4975491;28;20027;-84
2023/06/06 07:28:02;;;;;;;9.45;5.88;;;16.20;92.10;;;;;;4975303;28;20525;-85
2023/06/06 07:30:30;;;;;;;9.82;6.18;;;16.30;92.10;;;;;;4958219;28;20019;-85
2023/06/06 07:32:56;;;;;;;8.00;5.70;;;16.40;92.10;;;;;;4975161;28;20023;-85
2023/06/06 07:35:30;;;;;;;8.57;6.03;;;16.50;92.10;;;;;;4974546;28;20042;-85
2023/06/06 07:38:03;;;;;;;9.13;5.93;;;16.60;92.00;;;;;;4974262;28;20490;-85
2023/06/06 07:40:32;;;;;;;9.98;5.70;;;16.70;91.90;;;;;;4958882;28;20031;-84
2023/06/06 07:43:01;;;;;;;9.50;5.50;;;16.70;91.80;;;;;;4973994;28;20111;-85
2023/06/06 07:45:28;;;;;;;9.70;5.07;;;16.80;91.90;;;;;;4974602;28;20482;-85
2023/06/06 07:47:57;;;;;;;6.35;5.00;;;17.00;91.80;;;;;;4975729;28;20026;-85
2023/06/06 07:50:34;;;;;;;6.60;4.88;;;17.10;91.80;;;;;;4974499;28;20026;-85
2023/06/06 07:53:00;;;;;;;6.22;4.55;;;17.20;91.70;;;;;;4973944;28;20019;-85
2023/06/06 07:55:30;;;;;;;7.82;6.28;;;17.30;91.60;;;;;;4973731;28;20121;-86
2023/06/06 07:58:01;;;;;;;7.50;5.03;;;17.40;91.30;;;;;;4973341;28;20498;-86
2023/06/06 08:00:30;;;;;;;7.35;5.43;;;17.40;91.20;;;;;;4958001;28;20038;-84
2023/06/06 08:03:06;;;;;;;8.27;5.88;;;17.50;91.30;;;;;;4973484;28;20472;-85
2023/06/06 08:05:33;;;;;;;6.38;4.72;;;17.60;91.20;;;;;;4973255;28;20073;-85
2023/06/06 08:08:00;;;;;;;8.73;5.72;;;17.60;91.30;;;;;;4973387;28;20035;-86
2023/06/06 08:10:34;;;;;;;7.00;5.60;;;17.70;91.00;;;;;;4974746;28;20026;-85
2023/06/06 08:13:06;;;;;;;7.57;5.28;;;17.80;90.80;;;;;;4994682;28;20086;-86
2023/06/06 08:15:37;;;;;;;7.03;5.70;;;17.80;90.80;;;;;;4977164;28;20031;-86
2023/06/06 08:18:03;;;;;;;5.50;4.65;;;17.90;90.70;;;;;;4977401;28;20529;-86
2023/06/06 08:20:36;;;;;;;9.75;6.18;;;18.00;90.80;;;;;;4977487;28;20030;-84
2023/06/06 08:23:02;;;;;;;8.82;5.80;;;18.00;90.60;;;;;;4993735;28;20180;-86
2023/06/06 08:25:27;;;;;;;10.43;6.20;;;18.10;90.40;;;;;;4995494;28;20034;-85
2023/06/06 08:27:53;;;;;;;9.05;5.63;;;18.10;90.30;;;;;;4978312;28;20076;-85
2023/06/06 08:30:21;;;;;;;7.53;4.80;;;18.20;90.30;;;;;;4978617;28;20026;-86
2023/06/06 08:32:55;;;;;;;8.65;5.82;;;18.20;90.40;;;;;;4978269;28;20065;-85
2023/06/06 08:35:24;;;;;;;8.73;6.25;;;18.20;90.10;;;;;;4995011;28;20031;-85
2023/06/06 08:37:52;;;;;;;6.25;4.65;;;18.20;90.00;;;;;;4995866;28;20029;-85
2023/06/06 08:40:18;;;;;;;9.63;6.10;;;18.30;90.20;;;;;;4979722;28;20549;-84
2023/06/06 08:42:46;;;;;;;9.88;6.50;;;18.30;90.00;;;;;;4983539;28;20027;-85
2023/06/06 08:45:13;;;;;;;9.18;5.72;;;18.40;90.00;;;;;;4997023;28;20053;-85
2023/06/06 08:47:42;;;;;;;9.65;5.05;;;18.40;89.90;;;;;;5001476;28;20018;-84
2023/06/06 08:50:07;;;;;;;7.40;5.50;;;18.50;90.00;;;;;;5000921;28;20038;-85
2023/06/06 08:52:35;;;;;;;6.75;5.40;;;18.60;89.70;;;;;;4999578;28;20082;-85
2023/06/06 08:55:01;;;;;;;6.53;5.25;;;18.70;89.70;;;;;;4992899;28;20105;-84
2023/06/06 08:57:28;;;;;;;7.85;4.85;;;18.80;89.80;;;;;;4979530;28;20034;-86
2023/06/06 08:59:53;;;;;;;8.75;5.03;;;18.90;89.50;;;;;;4994549;28;20109;-85
2023/06/06 09:02:21;;;;;;;7.82;5.75;;;18.90;89.20;;;;;;4977213;28;20117;-85
2023/06/06 09:04:56;;;;;;;6.78;5.72;;;19.00;89.00;;;;;;4976920;28;20030;-85
2023/06/06 09:07:24;;;;;;;9.23;6.00;;;19.10;88.90;;;;;;4976340;28;20054;-85
2023/06/06 09:09:52;;;;;;;11.73;6.50;;;19.20;88.80;;;;;;4976795;28;20034;-84
2023/06/06 09:12:17;;;;;;;11.95;5.35;;;19.20;87.80;;;;;;4992444;28;20058;-85
2023/06/06 09:14:43;;;;;;;8.10;5.00;;;19.20;88.20;;;;;;4976340;28;20394;-85
2023/06/06 09:17:15;;;;;;;8.38;4.65;;;19.30;88.20;;;;;;4992628;28;20164;-86
2023/06/06 09:19:45;;;;;;;6.07;4.00;;;19.40;88.20;;;;;;4992209;28;20031;-86
2023/06/06 09:22:14;;;;;;;5.70;4.03;;;19.50;88.30;;;;;;4977822;28;20026;-86
2023/06/06 09:24:44;;;;;;;7.20;5.28;;;19.60;88.20;;;;;;4996412;28;20049;-86
2023/06/06 09:27:39;;;;;;;5.55;4.28;;;19.70;87.70;;;;;;4979779;28;20034;-86
2023/06/06 09:30:22;;;;;;;5.78;4.00;;;19.80;87.80;;;;;;4977371;28;20129;-86
2023/06/06 09:33:04;;;;;;;6.25;4.13;;;19.90;88.00;;;;;;4997555;28;20022;-85
2023/06/06 09:35:41;;;;;;;5.32;4.32;;;20.10;87.80;;;;;;4997607;28;20027;-85
2023/06/06 09:38:10;;;;;;;6.40;4.82;;;20.20;87.10;;;;;;4980056;28;20556;-84
2023/06/06 09:40:54;;;;;;;7.75;4.88;;;20.30;86.40;;;;;;4996528;28;20033;-85
2023/06/06 09:43:27;;;;;;;7.68;4.40;;;20.30;85.90;;;;;;4979927;28;20040;-85
2023/06/06 09:45:58;;;;;;;9.73;5.40;;;20.40;86.00;;;;;;4980130;28;20045;-85
2023/06/06 09:48:27;;;;;;;6.65;3.97;;;20.40;85.60;;;;;;4980060;28;20014;-86
2023/06/06 09:50:54;;;;;;;5.20;3.70;;;20.50;85.80;;;;;;4979845;28;20030;-85
2023/06/06 09:53:24;;;;;;;6.47;4.05;;;20.50;85.90;;;;;;4980001;28;20050;-85
2023/06/06 09:56:04;;;;;;;5.32;3.80;;;20.60;86.00;;;;;;4980653;28;20023;-85
2023/06/06 09:58:33;;;;;;;5.30;4.30;;;20.70;85.70;;;;;;4997979;28;20475;-85
2023/06/06 10:01:02;;;;;;;6.93;4.88;;;20.80;85.40;;;;;;4980315;28;20030;-86
2023/06/06 10:03:32;;;;;;;6.15;3.70;;;20.90;85.20;;;;;;4980395;28;20038;-86
2023/06/06 10:05:58;;;;;;;5.30;3.45;;;21.00;85.20;;;;;;4981650;28;20035;-86
2023/06/06 10:08:25;;;;;;;5.70;3.63;;;21.00;85.20;;;;;;4979477;28;20036;-86
2023/06/06 10:10:50;;;;;;;5.10;4.00;;;21.10;85.00;;;;;;4979212;28;20054;-85
2023/06/06 10:13:19;;;;;;;4.80;3.97;;;21.20;84.80;;;;;;4979856;28;20029;-85
2023/06/06 10:15:52;;;;;;;8.70;5.03;;;21.30;84.60;;;;;;4979582;28;20029;-85
2023/06/06 10:18:28;;;;;;;6.50;4.38;;;21.30;83.70;;;;;;4980658;28;20382;-85
2023/06/06 10:21:00;;;;;;;4.38;3.25;;;21.30;84.00;;;;;;4996366;28;20466;-86
2023/06/06 10:23:26;;;;;;;6.65;4.13;;;21.30;84.30;;;;;;4980336;28;20558;-87
2023/06/06 10:25:52;;;;;;;7.20;4.75;;;21.40;84.20;;;;;;4980416;28;20125;-87
2023/06/06 10:28:34;;;;;;;5.75;4.00;;;21.50;83.20;;;;;;4981888;28;20458;-85
2023/06/06 10:31:41;;;;;;;7.63;4.10;;;21.60;83.10;;;;;;4984406;28;20065;-86
2023/06/06 10:34:16;;;;;;;6.53;3.42;;;21.60;83.20;;;;;;4981877;28;20123;-85
2023/06/06 10:36:49;;;;;;;5.25;3.85;;;21.70;83.40;;;;;;5001443;28;20026;-85
2023/06/06 10:39:20;;;;;;;6.80;3.95;;;21.80;83.10;;;;;;5003648;28;20045;-85
2023/06/06 10:42:08;;;;;;;5.68;4.50;;;21.80;83.10;;;;;;5003498;28;20082;-87
2023/06/06 10:44:43;;;;;;;6.40;3.72;;;21.90;82.60;;;;;;5000872;28;20089;-86
2023/06/06 10:47:28;;;;;;;9.02;4.28;;;21.90;82.60;;;;;;4983362;28;20474;-88
2023/06/06 10:50:26;;;;;;;6.25;4.20;;;22.00;82.30;;;;;;4996567;28;20022;-86
2023/06/06 10:53:01;;;;;;;9.43;4.30;;;22.00;82.20;;;;;;4970091;28;20078;-88
2023/06/06 10:55:38;;;;;;;6.07;3.85;;;22.10;82.00;;;;;;4979318;28;20050;-88
2023/06/06 10:58:13;;;;;;;6.88;4.53;;;22.10;82.60;;;;;;4995396;28;20117;-87
2023/06/06 11:00:55;;;;;;;7.53;4.88;;;22.10;81.80;;;;;;4995674;28;20059;-86
2023/06/06 11:03:46;;;;;;;4.40;3.75;;;22.20;81.60;;;;;;4978681;28;20068;-87
2023/06/06 11:06:29;;;;;;;;;;;;;;;;;;;;;
2023/06/06 11:09:18;;;;;;;6.82;3.92;;;22.40;81.50;;;;;;4996489;28;20053;-88
2023/06/06 11:11:44;;;;;;;7.07;4.30;;;22.40;81.30;;;;;;4976025;28;20137;-88
2023/06/06 11:14:13;;;;;;;7.85;3.88;;;22.50;81.10;;;;;;4992766;28;20085;-88
2023/06/06 11:16:46;;;;;;;7.68;4.32;;;22.50;81.00;;;;;;4975687;28;20123;-87
2023/06/06 11:19:15;;;;;;;7.82;4.95;;;22.60;80.70;;;;;;4991549;28;20178;-88
2023/06/06 11:21:51;;;;;;;7.72;4.30;;;22.60;80.00;;;;;;4975521;28;20019;-87
2023/06/06 11:24:18;;;;;;;6.32;4.85;;;22.70;80.10;;;;;;4975173;28;20027;-87
2023/06/06 11:26:50;;;;;;;7.30;4.13;;;22.70;79.00;;;;;;4959145;28;20035;-88
2023/06/06 11:29:20;;;;;;;6.72;3.90;;;22.70;78.70;;;;;;4976606;28;20034;-87
2023/06/06 11:31:57;;;;;;;6.75;3.35;;;22.80;79.00;;;;;;4975164;28;20023;-88
2023/06/06 11:35:02;;;;;;;4.90;3.42;;;22.80;79.40;;;;;;4975121;28;20037;-88
2023/06/06 11:37:42;;;;;;;;;;;;;;;;;;;;;
2023/06/06 11:40:14;;;;;;;6.10;4.25;;;22.90;79.30;;;;;;4974811;28;20391;-86
2023/06/06 11:42:48;;;;;;;5.30;3.83;;;23.00;78.90;;;;;;4975326;28;20018;-86
2023/06/06 11:45:23;;;;;;;4.15;3.50;;;23.00;78.80;;;;;;4958828;28;20035;-86
2023/06/06 11:47:50;;;;;;;4.03;3.00;;;23.10;78.50;;;;;;4975239;28;20035;-85
2023/06/06 11:50:27;;;;;;;5.15;3.60;;;23.20;78.90;;;;;;4975149;28;20045;-86
2023/06/06 11:52:53;;;;;;;4.95;3.55;;;23.20;78.60;;;;;;4977077;28;20089;-86
2023/06/06 11:55:38;;;;;;;6.82;3.83;;;23.20;77.90;;;;;;4975934;28;20035;-86
2023/06/06 11:58:07;;;;;;;7.68;4.40;;;23.30;77.80;;;;;;4976101;28;20062;-86
2023/06/06 12:00:33;;;;;;;6.00;4.13;;;23.30;77.10;;;;;;4976855;28;20058;-86
2023/06/06 12:02:59;;;;;;;6.88;4.22;;;23.30;77.50;;;;;;4974829;28;20046;-86
2023/06/06 12:05:28;;;;;;;7.47;3.97;;;23.40;77.00;;;;;;4976498;28;20514;-86
2023/06/06 12:07:59;;;;;;;5.47;3.75;;;23.40;76.50;;;;;;4960392;28;20030;-86
2023/06/06 12:10:30;;;;;;;7.53;4.80;;;23.40;76.50;;;;;;4982235;28;20042;-86
2023/06/06 12:12:59;;;;;;;5.70;4.38;;;23.50;76.40;;;;;;5006632;28;20037;-86
2023/06/06 12:15:47;;;;;;;5.72;4.00;;;23.50;76.50;;;;;;4998751;28;20034;-86
2023/06/06 12:18:17;;;;;;;5.65;3.70;;;23.50;76.80;;;;;;4978914;28;20037;-85
2023/06/06 12:20:46;;;;;;;5.90;3.40;;;23.60;77.10;;;;;;4995446;28;20458;-86
2023/06/06 12:23:24;;;;;;;8.65;4.00;;;23.70;77.30;;;;;;4997129;28;20018;-86
2023/06/06 12:25:55;;;;;;;6.25;3.97;;;23.80;76.70;;;;;;4980872;28;20023;-87
2023/06/06 12:28:26;;;;;;;4.28;3.42;;;23.90;75.40;;;;;;4982624;28;20113;-85
2023/06/06 12:30:53;;;;;;;5.45;3.35;;;23.90;75.60;;;;;;4983383;28;20042;-86
2023/06/06 12:33:22;;;;;;;4.72;3.30;;;23.90;76.00;;;;;;5003290;28;20029;-86
2023/06/06 12:35:48;;;;;;;4.78;3.63;;;24.00;75.90;;;;;;5000359;28;20011;-86
2023/06/06 12:38:25;;;;;;;5.93;3.85;;;24.10;75.70;;;;;;5018618;28;20079;-84
2023/06/06 12:40:58;;;;;;;6.55;3.50;;;24.10;75.10;;;;;;5017566;28;20054;-86
2023/06/06 12:43:27;;;;;;;5.63;3.72;;;24.10;74.50;;;;;;4999926;28;20022;-84
2023/06/06 12:45:55;;;;;;;6.72;3.80;;;24.20;74.60;;;;;;4994837;28;20045;-86
2023/06/06 12:48:25;;;;;;;7.85;3.95;;;24.20;74.00;;;;;;4979817;28;20037;-85
2023/06/06 12:50:51;;;;;;;;;;;24.30;74.40;;;;;;4979109;28;20112;-85
2023/06/06 12:53:24;;;;;;;6.18;3.58;;;24.30;74.60;;;;;;4995406;28;19955;-86
2023/06/06 12:55:50;;;;;;;5.30;3.45;;;24.40;74.90;;;;;;4996069;28;20029;-85
2023/06/06 12:58:17;;;;;;;5.15;2.85;;;24.40;74.20;;;;;;4997525;28;20026;-85
2023/06/06 13:00:43;;;;;;;5.35;3.05;;;24.40;74.20;;;;;;4982162;28;20030;-85